BZL weather

Barisal Airport
Barisal, Barisal Division, Bangladesh

Public forecast

Using degrees Celsius for public forecast. Weather courtesy of forecast.io.

Closest aviation weather report (METAR) to Barisal Airport

Closest report is Hazrat Shahjalal International Airport, 62.8 nm (116.3 km) N. Retrieved 2020/02/22 04:30 UTC (40 minutes ago):

VGHS 220430Z 29004KT 2000 HZ SCT100 26/19 Q1020 BECMG S/VIS 2500M

Closest aviation forecast (TAF) to Barisal Airport

Closest forecast is Hazrat Shahjalal International Airport, 62.8 nm (116.3 km) N. Retrieved 2020-02-22 00:00 UTC (5 hours ago):

TAF VGHS 212300Z 2200/2306 00000KT 1200 BR NSC TEMPO 2200/2203 1000 BR SCT009 BECMG 2204/2206 04006KT 2500 BR BECMG 2208/2210 34006KT 3500 HZ SCT100 BECMG 2222/2224 00000KT 2000 BR TEMPO 2300/2303 00000KT 1200 BR SCT012 BECMG 2304/2306 06006KT 2500 HZ